createdAt,value
2018-08-28T00:00:18.550Z,0
2018-08-28T00:01:18.285Z,0
2018-08-28T00:02:18.537Z,0
2018-08-28T00:03:18.533Z,0
2018-08-28T00:04:18.523Z,0
2018-08-28T00:05:18.517Z,0
2018-08-28T00:06:18.518Z,0
2018-08-28T00:07:18.497Z,0
2018-08-28T00:08:18.492Z,0
2018-08-28T00:09:18.484Z,0
2018-08-28T00:10:18.479Z,0
2018-08-28T00:11:18.212Z,0
2018-08-28T00:12:18.207Z,0
2018-08-28T00:13:18.455Z,0
2018-08-28T00:14:18.449Z,0
2018-08-28T00:15:18.451Z,0
2018-08-28T00:16:18.439Z,0
2018-08-28T00:17:18.173Z,0
2018-08-28T00:18:18.427Z,0
2018-08-28T00:19:18.415Z,0
2018-08-28T00:20:18.150Z,0
2018-08-28T00:21:18.400Z,0
2018-08-28T00:22:18.393Z,0
2018-08-28T00:23:18.396Z,0
2018-08-28T00:24:18.379Z,0
2018-08-28T00:25:18.373Z,0
2018-08-28T00:26:18.365Z,0
2018-08-28T00:27:18.357Z,0
2018-08-28T00:28:18.359Z,0
2018-08-28T00:29:18.344Z,0
2018-08-28T00:30:18.335Z,0
2018-08-28T00:31:18.331Z,0
2018-08-28T00:32:18.320Z,0
2018-08-28T00:33:18.315Z,0
2018-08-28T00:34:18.307Z,0
2018-08-28T00:35:18.299Z,0
2018-08-28T00:36:18.292Z,0
2018-08-28T00:37:18.284Z,0
2018-08-28T00:38:18.278Z,0
2018-08-28T00:39:18.016Z,0
2018-08-28T00:40:18.017Z,0
2018-08-28T00:41:18.259Z,0
2018-08-28T00:42:17.994Z,0
2018-08-28T00:43:18.243Z,0
2018-08-28T00:44:18.237Z,0
2018-08-28T00:45:17.971Z,0
2018-08-28T00:46:18.218Z,0
2018-08-28T00:47:18.212Z,0
2018-08-28T00:48:18.204Z,0
2018-08-28T00:49:18.207Z,0
2018-08-28T00:50:17.935Z,0
2018-08-28T00:51:18.183Z,0
2018-08-28T00:52:18.237Z,0
2018-08-28T00:53:18.169Z,0
2018-08-28T00:54:18.161Z,0
2018-08-28T00:55:18.153Z,0
2018-08-28T00:56:18.148Z,0
2018-08-28T00:57:18.141Z,0
2018-08-28T00:58:18.132Z,0
2018-08-28T00:59:18.127Z,0
2018-08-28T01:00:18.124Z,0
2018-08-28T01:01:17.855Z,0
2018-08-28T01:02:17.846Z,0
2018-08-28T01:03:18.097Z,0
2018-08-28T01:04:18.092Z,0
2018-08-28T01:05:18.082Z,0
2018-08-28T01:06:18.088Z,0
2018-08-28T01:07:18.075Z,0
2018-08-28T01:08:17.806Z,0
2018-08-28T01:09:18.056Z,0
2018-08-28T01:10:18.046Z,0
2018-08-28T01:11:17.783Z,0
2018-08-28T01:12:18.035Z,0
2018-08-28T01:13:18.037Z,0
2018-08-28T01:14:18.023Z,0
2018-08-28T01:15:18.011Z,0
2018-08-28T01:16:18.012Z,0
2018-08-28T01:17:17.997Z,0
2018-08-28T01:18:17.989Z,0
2018-08-28T01:19:17.985Z,0
2018-08-28T01:20:17.981Z,0
2018-08-28T01:21:17.971Z,0
2018-08-28T01:22:17.963Z,0
2018-08-28T01:23:17.699Z,0
2018-08-28T01:24:17.952Z,0
2018-08-28T01:25:17.948Z,0
2018-08-28T01:26:17.937Z,0
2018-08-28T01:27:17.928Z,0
2018-08-28T01:28:17.920Z,0
2018-08-28T01:29:17.918Z,0
2018-08-28T01:30:17.926Z,0
2018-08-28T01:31:17.901Z,0
2018-08-28T01:32:17.639Z,0
2018-08-28T01:33:17.630Z,0
2018-08-28T01:34:17.886Z,0
2018-08-28T01:35:17.878Z,0
2018-08-28T01:36:17.872Z,0
2018-08-28T01:37:17.606Z,0
2018-08-28T01:38:17.861Z,0
2018-08-28T01:39:17.851Z,0
2018-08-28T01:40:17.845Z,0
2018-08-28T01:41:17.840Z,0
2018-08-28T01:42:17.829Z,0
2018-08-28T01:43:17.828Z,0
2018-08-28T01:44:17.813Z,0
2018-08-28T01:45:17.554Z,0
2018-08-28T01:46:17.801Z,0
2018-08-28T01:47:17.798Z,0
2018-08-28T01:48:17.788Z,0
2018-08-28T01:49:17.786Z,0
2018-08-28T01:50:17.777Z,0
2018-08-28T01:51:17.770Z,0
2018-08-28T01:52:17.762Z,0
2018-08-28T01:53:17.755Z,0
2018-08-28T01:54:17.492Z,0
2018-08-28T01:55:17.744Z,0
2018-08-28T01:56:17.737Z,0
2018-08-28T01:57:17.474Z,0
2018-08-28T01:58:17.724Z,0
2018-08-28T01:59:17.460Z,0
2018-08-28T02:00:17.452Z,0
2018-08-28T02:01:17.704Z,0
2018-08-28T02:02:17.703Z,0
2018-08-28T02:03:17.697Z,0
2018-08-28T02:04:17.686Z,0
2018-08-28T02:05:17.680Z,0
2018-08-28T02:06:17.424Z,0
2018-08-28T02:07:17.665Z,0
2018-08-28T02:08:17.663Z,0
2018-08-28T02:09:17.654Z,0
2018-08-28T02:10:17.388Z,0
2018-08-28T02:11:17.381Z,0
2018-08-28T02:12:17.381Z,0
2018-08-28T02:13:17.837Z,0
2018-08-28T02:14:17.627Z,0
2018-08-28T02:15:17.612Z,0
2018-08-28T02:16:17.605Z,0
2018-08-28T02:17:17.342Z,0
2018-08-28T02:18:17.336Z,0
2018-08-28T02:19:17.595Z,0
2018-08-28T02:20:17.580Z,0
2018-08-28T02:21:17.315Z,0
2018-08-28T02:22:17.576Z,0
2018-08-28T02:23:17.560Z,0
2018-08-28T02:24:17.551Z,0
2018-08-28T02:25:17.545Z,0
2018-08-28T02:26:17.281Z,0
2018-08-28T02:27:17.533Z,0
2018-08-28T02:28:17.531Z,0
2018-08-28T02:29:17.519Z,0
2018-08-28T02:30:17.526Z,0
2018-08-28T02:31:17.250Z,0
2018-08-28T02:32:17.505Z,0
2018-08-28T02:33:17.499Z,0
2018-08-28T02:34:17.486Z,0
2018-08-28T02:35:17.485Z,0
2018-08-28T02:36:17.472Z,0
2018-08-28T02:37:17.465Z,0
2018-08-28T02:38:17.465Z,0
2018-08-28T02:39:17.460Z,0
2018-08-28T02:40:17.452Z,0
2018-08-28T02:41:17.441Z,0
2018-08-28T02:42:17.441Z,0
2018-08-28T02:43:17.430Z,0
2018-08-28T02:44:17.422Z,0
2018-08-28T02:45:17.414Z,0
2018-08-28T02:46:17.408Z,0
2018-08-28T02:47:17.404Z,0
2018-08-28T02:48:17.147Z,0
2018-08-28T02:49:17.391Z,0
2018-08-28T02:50:17.384Z,0
2018-08-28T02:51:17.376Z,0
2018-08-28T02:52:17.112Z,0
2018-08-28T02:53:17.366Z,0
2018-08-28T02:54:17.358Z,0
2018-08-28T02:55:17.355Z,0
2018-08-28T02:56:17.524Z,0
2018-08-28T02:57:17.086Z,0
2018-08-28T02:58:17.333Z,0
2018-08-28T02:59:17.329Z,0
2018-08-28T03:00:17.317Z,0
2018-08-28T03:01:17.310Z,0
2018-08-28T03:02:17.308Z,0
2018-08-28T03:03:17.298Z,0
2018-08-28T03:04:17.291Z,0
2018-08-28T03:05:17.026Z,0
2018-08-28T03:06:17.276Z,0
2018-08-28T03:07:17.273Z,0
2018-08-28T03:08:17.265Z,0
2018-08-28T03:09:17.000Z,0
2018-08-28T03:10:16.993Z,0
2018-08-28T03:11:17.329Z,0
2018-08-28T03:12:16.977Z,0
2018-08-28T03:13:16.976Z,0
2018-08-28T03:14:17.224Z,0
2018-08-28T03:15:17.214Z,0
2018-08-28T03:16:17.208Z,0
2018-08-28T03:17:17.200Z,0
2018-08-28T03:18:17.199Z,0
2018-08-28T03:19:17.197Z,0
2018-08-28T03:20:17.181Z,0
2018-08-28T03:21:17.182Z,0
2018-08-28T03:22:17.169Z,0
2018-08-28T03:23:16.905Z,0
2018-08-28T03:24:17.158Z,0
2018-08-28T03:25:17.151Z,0
2018-08-28T03:26:17.145Z,0
2018-08-28T03:27:17.146Z,0
2018-08-28T03:28:17.136Z,0
2018-08-28T03:29:16.867Z,0
2018-08-28T03:30:17.120Z,0
2018-08-28T03:31:17.116Z,0
2018-08-28T03:32:17.105Z,0
2018-08-28T03:33:17.096Z,0
2018-08-28T03:34:17.092Z,0
2018-08-28T03:35:16.827Z,0
2018-08-28T03:36:17.076Z,0
2018-08-28T03:37:17.070Z,0
2018-08-28T03:38:16.809Z,0
2018-08-28T03:39:17.064Z,0
2018-08-28T03:40:17.055Z,0
2018-08-28T03:41:16.788Z,0
2018-08-28T03:42:16.780Z,0
2018-08-28T03:43:16.776Z,0
2018-08-28T03:44:16.771Z,0
2018-08-28T03:45:17.020Z,0
2018-08-28T03:46:16.758Z,0
2018-08-28T03:47:17.016Z,0
2018-08-28T03:48:16.999Z,0
2018-08-28T03:49:16.998Z,0
2018-08-28T03:50:16.986Z,0
2018-08-28T03:51:16.979Z,0
2018-08-28T03:52:17.002Z,0
2018-08-28T03:53:16.711Z,0
2018-08-28T03:54:16.962Z,0
2018-08-28T03:55:17.034Z,0
2018-08-28T03:56:16.949Z,0
2018-08-28T03:57:16.939Z,0
2018-08-28T03:58:16.679Z,0
2018-08-28T03:59:16.931Z,0
2018-08-28T04:00:16.666Z,0
2018-08-28T04:01:16.915Z,0
2018-08-28T04:02:16.913Z,0
2018-08-28T04:03:16.910Z,0
2018-08-28T04:04:16.900Z,0
2018-08-28T04:05:16.889Z,0
2018-08-28T04:06:16.631Z,0
2018-08-28T04:07:16.880Z,0
2018-08-28T04:08:16.877Z,0
2018-08-28T04:09:16.872Z,0
2018-08-28T04:10:16.602Z,0
2018-08-28T04:11:16.861Z,0
2018-08-28T04:12:16.846Z,0
2018-08-28T04:13:16.896Z,0
2018-08-28T04:14:16.834Z,0
2018-08-28T04:15:16.831Z,0
2018-08-28T04:16:16.566Z,0.38
2018-08-28T04:17:16.820Z,1.14
2018-08-28T04:18:16.810Z,1.62
2018-08-28T04:19:16.810Z,2.39
2018-08-28T04:20:16.800Z,3.06
2018-08-28T04:21:16.534Z,3.25
2018-08-28T04:22:16.787Z,3.34
2018-08-28T04:23:16.523Z,3.34
2018-08-28T04:24:16.775Z,3.44
2018-08-28T04:25:16.768Z,3.72
2018-08-28T04:26:16.763Z,4.01
2018-08-28T04:27:16.755Z,4.78
2018-08-28T04:28:16.748Z,4.87
2018-08-28T04:29:16.740Z,5.26
2018-08-28T04:30:16.778Z,5.54
2018-08-28T04:31:16.732Z,6.5
2018-08-28T04:32:16.727Z,6.02
2018-08-28T04:33:16.717Z,6.5
2018-08-28T04:34:16.713Z,6.21
2018-08-28T04:35:16.706Z,5.83
2018-08-28T04:36:16.699Z,5.83
2018-08-28T04:37:16.694Z,6.21
2018-08-28T04:38:16.687Z,6.59
2018-08-28T04:39:16.680Z,6.98
2018-08-28T04:40:16.679Z,6.88
2018-08-28T04:41:16.413Z,6.88
2018-08-28T04:42:16.663Z,6.88
2018-08-28T04:43:16.656Z,6.79
2018-08-28T04:44:16.656Z,7.17
2018-08-28T04:45:16.642Z,7.17
2018-08-28T04:46:16.640Z,7.45
2018-08-28T04:47:16.376Z,7.65
2018-08-28T04:48:16.626Z,7.84
2018-08-28T04:49:16.620Z,7.84
2018-08-28T04:50:16.617Z,8.03
2018-08-28T04:51:16.352Z,8.31
2018-08-28T04:52:16.603Z,8.12
2018-08-28T04:53:16.595Z,8.6
2018-08-28T04:54:16.458Z,8.8
2018-08-28T04:55:16.586Z,9.17
2018-08-28T04:56:16.578Z,9.46
2018-08-28T04:57:16.573Z,9.94
2018-08-28T04:58:16.566Z,10.03
2018-08-28T04:59:16.560Z,9.94
2018-08-28T05:00:16.554Z,9.84
2018-08-28T05:01:16.556Z,10.23
2018-08-28T05:02:16.541Z,10.52
2018-08-28T05:03:16.539Z,11.09
2018-08-28T05:04:16.530Z,11.47
2018-08-28T05:05:16.521Z,11.85
2018-08-28T05:06:16.518Z,11.66
2018-08-28T05:07:16.512Z,11.57
2018-08-28T05:08:16.504Z,10.99
2018-08-28T05:09:16.499Z,11.09
2018-08-28T05:10:16.491Z,10.8
2018-08-28T05:11:16.487Z,11.38
2018-08-28T05:12:16.483Z,12.43
2018-08-28T05:13:16.476Z,12.9
2018-08-28T05:14:16.468Z,13.57
2018-08-28T05:15:16.206Z,13.96
2018-08-28T05:16:16.459Z,15.01
2018-08-28T05:17:16.450Z,14.44
2018-08-28T05:18:16.186Z,14.73
2018-08-28T05:19:16.253Z,15.01
2018-08-28T05:20:16.439Z,15.4
2018-08-28T05:21:16.428Z,16.35
2018-08-28T05:22:16.421Z,16.74
2018-08-28T05:23:16.417Z,16.83
2018-08-28T05:24:16.411Z,16.83
2018-08-28T05:25:16.409Z,17.12
2018-08-28T05:26:16.139Z,18.74
2018-08-28T05:27:16.132Z,20.85
2018-08-28T05:28:16.385Z,21.9
2018-08-28T05:29:16.122Z,22.96
2018-08-28T05:30:16.392Z,24.19
2018-08-28T05:31:16.381Z,24.19
2018-08-28T05:32:16.363Z,24.58
2018-08-28T05:33:16.357Z,24.77
2018-08-28T05:34:16.353Z,25.92
2018-08-28T05:35:16.345Z,26.97
2018-08-28T05:36:16.341Z,27.73
2018-08-28T05:37:16.339Z,28.12
2018-08-28T05:38:16.330Z,29.27
2018-08-28T05:39:16.326Z,29.55
2018-08-28T05:40:16.317Z,30.7
2018-08-28T05:41:16.317Z,31.09
2018-08-28T05:42:16.303Z,32.14
2018-08-28T05:43:16.303Z,32.81
2018-08-28T05:44:16.301Z,32.71
2018-08-28T05:45:16.302Z,32.52
2018-08-28T05:46:16.279Z,32.52
2018-08-28T05:47:16.277Z,32.73
2018-08-28T05:48:16.269Z,33.49
2018-08-28T05:49:16.266Z,34.36
2018-08-28T05:50:16.259Z,35.41
2018-08-28T05:51:16.254Z,36.27
2018-08-28T05:52:16.251Z,36.46
2018-08-28T05:53:16.243Z,36.36
2018-08-28T05:54:16.235Z,37.41
2018-08-28T05:55:16.234Z,38.47
2018-08-28T05:56:16.483Z,39.14
2018-08-28T05:57:16.221Z,40.58
2018-08-28T05:58:16.216Z,41.82
2018-08-28T05:59:16.207Z,42.4
2018-08-28T06:00:16.210Z,43.18
2018-08-28T06:01:15.945Z,44.13
2018-08-28T06:02:16.194Z,45.38
2018-08-28T06:03:16.121Z,45.48
2018-08-28T06:04:15.931Z,46.25
2018-08-28T06:05:15.919Z,46.91
2018-08-28T06:06:15.912Z,47.01
2018-08-28T06:07:16.165Z,48.35
2018-08-28T06:08:15.904Z,50.84
2018-08-28T06:09:16.155Z,54.57
2018-08-28T06:10:15.894Z,55.73
2018-08-28T06:11:16.148Z,57.16
2018-08-28T06:12:16.141Z,57.45
2018-08-28T06:13:15.876Z,60.51
2018-08-28T06:14:16.133Z,61.47
2018-08-28T06:15:16.126Z,62.55
2018-08-28T06:16:16.121Z,68.11
2018-08-28T06:17:15.858Z,71.84
2018-08-28T06:18:16.110Z,72.71
2018-08-28T06:19:16.106Z,73.66
2018-08-28T06:20:16.108Z,75.77
2018-08-28T06:21:16.096Z,75.68
2018-08-28T06:22:16.093Z,74.15
2018-08-28T06:23:16.088Z,74.43
2018-08-28T06:24:16.079Z,76.73
2018-08-28T06:25:16.075Z,82.52
2018-08-28T06:26:16.081Z,83.58
2018-08-28T06:27:15.811Z,84.15
2018-08-28T06:28:15.803Z,83.05
2018-08-28T06:29:16.058Z,82.04
2018-08-28T06:30:16.056Z,83.19
2018-08-28T06:31:16.048Z,84.72
2018-08-28T06:32:16.047Z,86.16
2018-08-28T06:33:16.049Z,87.02
2018-08-28T06:34:16.039Z,86.54
2018-08-28T06:35:16.031Z,87.41
2018-08-28T06:36:16.030Z,88.84
2018-08-28T06:37:16.100Z,91.34
2018-08-28T06:38:16.022Z,92.77
2018-08-28T06:39:16.017Z,99.99
2018-08-28T06:40:16.014Z,99.99
2018-08-28T06:41:16.009Z,99.99
2018-08-28T06:42:15.745Z,99.99
2018-08-28T06:43:15.998Z,99.99
2018-08-28T06:44:15.995Z,99.99
2018-08-28T06:45:15.992Z,99.99
2018-08-28T06:46:15.995Z,99.99
2018-08-28T06:47:15.726Z,99.99
2018-08-28T06:48:15.978Z,99.99
2018-08-28T06:49:15.973Z,99.99
2018-08-28T06:50:15.979Z,99.99
2018-08-28T06:51:15.965Z,99.99
2018-08-28T06:52:15.962Z,99.99
2018-08-28T06:53:15.959Z,99.99
2018-08-28T06:54:15.953Z,99.99
2018-08-28T06:55:15.950Z,99.99
2018-08-28T06:56:15.944Z,99.99
2018-08-28T06:57:15.942Z,99.99
2018-08-28T06:58:15.679Z,99.99
2018-08-28T06:59:15.937Z,99.99
2018-08-28T07:00:15.933Z,99.99
2018-08-28T07:01:15.679Z,99.99
2018-08-28T07:02:15.725Z,99.99
2018-08-28T07:03:15.919Z,99.99
2018-08-28T07:04:15.913Z,99.99
2018-08-28T07:05:15.910Z,99.99
2018-08-28T07:06:15.910Z,99.99
2018-08-28T07:07:15.904Z,99.99
2018-08-28T07:08:15.898Z,99.99
2018-08-28T07:09:15.895Z,99.99
2018-08-28T07:10:16.039Z,99.99
2018-08-28T07:11:15.630Z,99.99
2018-08-28T07:12:15.883Z,99.99
2018-08-28T07:13:15.882Z,99.99
2018-08-28T07:14:15.622Z,99.99
2018-08-28T07:15:15.620Z,99.99
2018-08-28T07:16:15.867Z,99.99
2018-08-28T07:17:15.873Z,99.99
2018-08-28T07:18:15.605Z,99.99
2018-08-28T07:19:15.860Z,99.99
2018-08-28T07:20:15.600Z,99.99
2018-08-28T07:21:15.853Z,99.99
2018-08-28T07:22:15.848Z,99.99
2018-08-28T07:23:15.848Z,99.99
2018-08-28T07:24:15.842Z,99.99
2018-08-28T07:25:15.841Z,99.99
2018-08-28T07:26:15.581Z,99.99
2018-08-28T07:27:15.852Z,99.99
2018-08-28T07:28:15.839Z,99.99
2018-08-28T07:29:15.841Z,99.99
2018-08-28T07:30:15.865Z,99.99
2018-08-28T07:31:15.884Z,99.99
2018-08-28T07:32:15.821Z,99.99
2018-08-28T07:33:15.815Z,99.99
2018-08-28T07:34:15.554Z,99.99
2018-08-28T07:35:15.554Z,99.35
2018-08-28T07:36:15.806Z,99.99
2018-08-28T07:37:15.904Z,96.75
2018-08-28T07:38:15.810Z,96.85
2018-08-28T07:39:15.543Z,94.87
2018-08-28T07:40:15.800Z,95.21
2018-08-28T07:41:15.538Z,99.99
2018-08-28T07:42:15.797Z,99.99
2018-08-28T07:43:15.534Z,99.99
2018-08-28T07:44:15.788Z,99.99
2018-08-28T07:45:15.788Z,99.99
2018-08-28T07:46:15.785Z,99.99
2018-08-28T07:47:15.781Z,99.99
2018-08-28T07:48:15.597Z,99.99
2018-08-28T07:49:15.521Z,99.99
2018-08-28T07:50:15.518Z,99.99
2018-08-28T07:51:15.518Z,99.99
2018-08-28T07:52:15.768Z,99.99
2018-08-28T07:53:15.769Z,99.99
2018-08-28T07:54:15.767Z,99.99
2018-08-28T07:55:15.762Z,99.99
2018-08-28T07:56:15.761Z,99.99
2018-08-28T07:57:15.504Z,99.99
2018-08-28T07:58:15.758Z,99.99
2018-08-28T07:59:15.755Z,95.7
2018-08-28T08:00:15.758Z,94.73
2018-08-28T08:01:15.811Z,95.98
2018-08-28T08:02:15.489Z,96.66
2018-08-28T08:03:15.751Z,96.61
2018-08-28T08:04:15.489Z,94.2
2018-08-28T08:05:15.487Z,91.31
2018-08-28T08:06:15.742Z,87.76
2018-08-28T08:07:15.740Z,85
2018-08-28T08:08:15.737Z,81.35
2018-08-28T08:09:15.741Z,80.96
2018-08-28T08:10:15.780Z,78.85
2018-08-28T08:11:15.735Z,77.78
2018-08-28T08:12:15.732Z,76.34
2018-08-28T08:13:15.737Z,76.31
2018-08-28T08:14:15.733Z,74.67
2018-08-28T08:15:15.730Z,75.05
2018-08-28T08:16:15.999Z,76.88
2018-08-28T08:17:15.726Z,76.78
2018-08-28T08:18:15.466Z,77.94
2018-08-28T08:19:15.730Z,75.28
2018-08-28T08:20:15.464Z,74.32
2018-08-28T08:21:15.462Z,76.63
2018-08-28T08:22:15.957Z,74.22
2018-08-28T08:23:15.718Z,73.39
2018-08-28T08:24:15.459Z,75.32
2018-08-28T08:25:15.718Z,80.04
2018-08-28T08:26:15.711Z,78.4
2018-08-28T08:27:15.711Z,75.8
2018-08-28T08:28:15.621Z,76.48
2018-08-28T08:29:15.453Z,76.44
2018-08-28T08:30:15.450Z,80.96
2018-08-28T08:31:15.703Z,81.79
2018-08-28T08:32:15.704Z,84.58
2018-08-28T08:33:15.711Z,81.79
2018-08-28T08:34:15.704Z,83.52
2018-08-28T08:35:15.788Z,86.41
2018-08-28T08:36:15.712Z,87.23
2018-08-28T08:37:15.704Z,93.48
2018-08-28T08:38:15.700Z,96.17
2018-08-28T08:39:15.711Z,96.08
2018-08-28T08:40:15.692Z,96.37
2018-08-28T08:41:15.695Z,97.38
2018-08-28T08:42:15.435Z,93.82
2018-08-28T08:43:15.692Z,87.46
2018-08-28T08:44:15.688Z,86.41
2018-08-28T08:45:15.691Z,92.43
2018-08-28T08:46:15.687Z,92.91
2018-08-28T08:47:15.690Z,92.08
2018-08-28T08:48:15.684Z,90.93
2018-08-28T08:49:15.684Z,92.28
2018-08-28T08:50:15.724Z,90.55
2018-08-28T08:51:15.778Z,91.85
2018-08-28T08:52:15.679Z,93
2018-08-28T08:53:15.675Z,94.15
2018-08-28T08:54:15.674Z,93.38
2018-08-28T08:55:15.674Z,93.87
2018-08-28T08:56:15.417Z,84.67
2018-08-28T08:57:15.818Z,83.91
2018-08-28T08:58:15.673Z,84.67
2018-08-28T08:59:15.667Z,86.79
2018-08-28T09:00:15.668Z,95.74
2018-08-28T09:01:15.406Z,96.32
2018-08-28T09:02:15.665Z,89.24
2018-08-28T09:03:15.664Z,80.19
2018-08-28T09:04:15.404Z,75.67
2018-08-28T09:05:15.404Z,74.71
2018-08-28T09:06:15.851Z,76.86
2018-08-28T09:07:15.404Z,79.08
2018-08-28T09:08:15.399Z,81.2
2018-08-28T09:09:15.654Z,78.59
2018-08-28T09:10:15.395Z,74.45
2018-08-28T09:11:15.654Z,74.26
2018-08-28T09:12:15.680Z,76.38
2018-08-28T09:13:15.758Z,75.9
2018-08-28T09:14:15.651Z,70.02
2018-08-28T09:15:15.657Z,71.18
2018-08-28T09:16:15.652Z,71.43
2018-08-28T09:17:15.649Z,71.91
2018-08-28T09:18:15.644Z,70.09
2018-08-28T09:19:15.420Z,69.18
2018-08-28T09:20:15.388Z,69.76
2018-08-28T09:21:15.642Z,68.32
2018-08-28T09:22:15.642Z,69.85
2018-08-28T09:23:15.647Z,71.84
2018-08-28T09:24:15.638Z,71.17
2018-08-28T09:25:15.636Z,69.82
2018-08-28T09:26:15.637Z,69.82
2018-08-28T09:27:15.378Z,71.36
2018-08-28T09:28:15.375Z,72.07
2018-08-28T09:29:15.632Z,68.51
2018-08-28T09:30:15.375Z,63.64
2018-08-28T09:31:15.418Z,64.34
2018-08-28T09:32:15.733Z,62.12
2018-08-28T09:33:15.631Z,58.3
2018-08-28T09:34:15.629Z,58.2
2018-08-28T09:35:15.627Z,60.13
2018-08-28T09:36:15.628Z,62.45
2018-08-28T09:37:15.623Z,61.1
2018-08-28T09:38:15.370Z,59.3
2018-08-28T09:39:15.367Z,57.46
2018-08-28T09:40:15.623Z,57.1
2018-08-28T09:41:15.621Z,54.11
2018-08-28T09:42:15.367Z,53.44
2018-08-28T09:43:15.623Z,53.66
2018-08-28T09:44:15.618Z,52.01
2018-08-28T09:45:15.623Z,51.63
2018-08-28T09:46:15.619Z,50.57
2018-08-28T09:47:15.363Z,51.63
2018-08-28T09:48:15.948Z,52.79
2018-08-28T09:49:15.624Z,51.92
2018-08-28T09:50:15.786Z,51.63
2018-08-28T09:51:15.628Z,51.73
2018-08-28T09:52:15.625Z,50.67
2018-08-28T09:53:15.617Z,50.18
2018-08-28T09:54:15.637Z,49.32
2018-08-28T09:55:15.631Z,50.09
2018-08-28T09:56:15.625Z,49.87
2018-08-28T09:57:15.622Z,50.26
2018-08-28T09:58:15.621Z,50.81
2018-08-28T09:59:15.619Z,50.98
2018-08-28T10:00:15.617Z,51.17
2018-08-28T10:01:15.619Z,52.04
2018-08-28T10:02:15.397Z,51.65
2018-08-28T10:03:15.619Z,51.75
2018-08-28T10:04:15.616Z,52.3
2018-08-28T10:05:15.617Z,52.4
2018-08-28T10:06:15.360Z,54.71
2018-08-28T10:07:15.615Z,54.52
2018-08-28T10:08:15.618Z,55.48
2018-08-28T10:09:15.617Z,55.87
2018-08-28T10:10:15.617Z,57.31
2018-08-28T10:11:15.614Z,56.35
2018-08-28T10:12:15.357Z,55.57
2018-08-28T10:13:15.618Z,53.96
2018-08-28T10:14:15.614Z,53.09
2018-08-28T10:15:15.614Z,51.84
2018-08-28T10:16:15.611Z,51.53
2018-08-28T10:17:15.711Z,51.24
2018-08-28T10:18:15.611Z,51.82
2018-08-28T10:19:15.613Z,52.11
2018-08-28T10:20:15.647Z,52.3
2018-08-28T10:21:15.608Z,52.59
2018-08-28T10:22:15.609Z,53.65
2018-08-28T10:23:15.609Z,54.03
2018-08-28T10:24:15.349Z,53.65
2018-08-28T10:25:15.609Z,54.52
2018-08-28T10:26:15.604Z,51.62
2018-08-28T10:27:15.606Z,51.98
2018-08-28T10:28:15.603Z,52.69
2018-08-28T10:29:15.361Z,52.49
2018-08-28T10:30:15.404Z,51.36
2018-08-28T10:31:15.603Z,50.04
2018-08-28T10:32:15.606Z,48.69
2018-08-28T10:33:15.600Z,46.49
2018-08-28T10:34:15.603Z,45.07
2018-08-28T10:35:15.603Z,44.87
2018-08-28T10:36:15.348Z,45.07
2018-08-28T10:37:15.649Z,44.87
2018-08-28T10:38:15.868Z,43.24
2018-08-28T10:39:15.615Z,43.24
2018-08-28T10:40:15.601Z,43.72
2018-08-28T10:41:15.345Z,43.52
2018-08-28T10:42:15.344Z,43.81
2018-08-28T10:43:15.601Z,44.2
2018-08-28T10:44:15.348Z,45.17
2018-08-28T10:45:15.345Z,44.7
2018-08-28T10:46:15.436Z,45.18
2018-08-28T10:47:15.604Z,44.32
2018-08-28T10:48:15.606Z,44.34
2018-08-28T10:49:15.602Z,43.93
2018-08-28T10:50:15.601Z,44.51
2018-08-28T10:51:15.604Z,44.7
2018-08-28T10:52:15.601Z,43.74
2018-08-28T10:53:15.605Z,43.74
2018-08-28T10:54:15.608Z,44.97
2018-08-28T10:55:15.613Z,44.29
2018-08-28T10:56:15.608Z,45.07
2018-08-28T10:57:15.603Z,45.36
2018-08-28T10:58:15.351Z,45.62
2018-08-28T10:59:15.606Z,46.11
2018-08-28T11:00:15.612Z,46.3
2018-08-28T11:01:15.609Z,46.66
2018-08-28T11:02:15.604Z,46.37
2018-08-28T11:03:15.350Z,46.86
2018-08-28T11:04:15.608Z,47.34
2018-08-28T11:05:15.603Z,48.69
2018-08-28T11:06:15.663Z,49.65
2018-08-28T11:07:15.609Z,49.55
2018-08-28T11:08:15.608Z,50.04
2018-08-28T11:09:15.605Z,49.17
2018-08-28T11:10:15.351Z,49.94
2018-08-28T11:11:15.614Z,49.91
2018-08-28T11:12:15.607Z,50.13
2018-08-28T11:13:15.352Z,51.39
2018-08-28T11:14:15.609Z,50.04
2018-08-28T11:15:15.613Z,49.87
2018-08-28T11:16:15.888Z,48.9
2018-08-28T11:17:15.609Z,46.71
2018-08-28T11:18:15.351Z,46.61
2018-08-28T11:19:15.624Z,47.17
2018-08-28T11:20:15.614Z,46.11
2018-08-28T11:21:15.612Z,46.97
2018-08-28T11:22:15.710Z,48.33
2018-08-28T11:23:15.609Z,48.3
2018-08-28T11:24:15.610Z,48.79
2018-08-28T11:25:15.350Z,47.82
2018-08-28T11:26:15.613Z,46.86
2018-08-28T11:27:15.615Z,47.24
2018-08-28T11:28:15.354Z,46.45
2018-08-28T11:29:15.615Z,46.37
2018-08-28T11:30:15.353Z,47.99
2018-08-28T11:31:15.680Z,47.7
2018-08-28T11:32:15.610Z,47.31
2018-08-28T11:33:15.351Z,48.18
2018-08-28T11:34:15.352Z,47.89
2018-08-28T11:35:15.606Z,48.18
2018-08-28T11:36:15.350Z,48.47
2018-08-28T11:37:15.609Z,49.05
2018-08-28T11:38:15.750Z,49.63
2018-08-28T11:39:15.610Z,48.79
2018-08-28T11:40:15.620Z,47.36
2018-08-28T11:41:15.610Z,46.49
2018-08-28T11:42:15.609Z,46.78
2018-08-28T11:43:15.608Z,46.78
2018-08-28T11:44:15.350Z,48.81
2018-08-28T11:45:15.615Z,47.58
2018-08-28T11:46:15.605Z,46.34
2018-08-28T11:47:15.780Z,45.38
2018-08-28T11:48:15.610Z,43.35
2018-08-28T11:49:15.352Z,42.48
2018-08-28T11:50:15.613Z,43.93
2018-08-28T11:51:15.607Z,43.72
2018-08-28T11:52:15.367Z,43.91
2018-08-28T11:53:15.880Z,45.04
2018-08-28T11:54:15.607Z,45.34
2018-08-28T11:55:15.607Z,45.62
2018-08-28T11:56:15.349Z,45.82
2018-08-28T11:57:15.612Z,46.56
2018-08-28T11:58:15.614Z,46.47
2018-08-28T11:59:15.620Z,47.22
2018-08-28T12:00:15.608Z,48.66
2018-08-28T12:01:15.613Z,48.66
2018-08-28T12:02:15.613Z,48.57
2018-08-28T12:03:15.618Z,48.93
2018-08-28T12:04:15.615Z,48.74
2018-08-28T12:05:15.763Z,49.7
2018-08-28T12:06:15.613Z,50.18
2018-08-28T12:07:15.777Z,50.47
2018-08-28T12:08:15.608Z,50.01
2018-08-28T12:09:15.607Z,49.24
2018-08-28T12:10:15.610Z,49.73
2018-08-28T12:11:15.606Z,48.59
2018-08-28T12:12:15.617Z,47.44
2018-08-28T12:13:15.861Z,46.37
2018-08-28T12:14:15.353Z,47.34
2018-08-28T12:15:15.610Z,46.37
2018-08-28T12:16:15.619Z,46.56
2018-08-28T12:17:15.613Z,47.07
2018-08-28T12:18:15.348Z,47.36
2018-08-28T12:19:15.609Z,46.97
2018-08-28T12:20:15.636Z,47.65
2018-08-28T12:21:15.605Z,47
2018-08-28T12:22:15.349Z,45.84
2018-08-28T12:23:15.606Z,44.59
2018-08-28T12:24:15.606Z,44.97
2018-08-28T12:25:15.349Z,45.26
2018-08-28T12:26:15.609Z,45.07
2018-08-28T12:27:15.608Z,44.39
2018-08-28T12:28:15.610Z,44.1
2018-08-28T12:29:15.611Z,43.91
2018-08-28T12:30:15.612Z,44.85
2018-08-28T12:31:15.610Z,45.17
2018-08-28T12:32:15.610Z,43.91
2018-08-28T12:33:15.605Z,45.24
2018-08-28T12:34:15.607Z,44.66
2018-08-28T12:35:15.610Z,44.76
2018-08-28T12:36:15.607Z,45.31
2018-08-28T12:37:15.800Z,45.89
2018-08-28T12:38:15.611Z,46.37
2018-08-28T12:39:15.612Z,46.64
2018-08-28T12:40:15.353Z,46.83
2018-08-28T12:41:15.608Z,47.51
2018-08-28T12:42:15.610Z,47.12
2018-08-28T12:43:15.623Z,47.6
2018-08-28T12:44:15.608Z,46.15
2018-08-28T12:45:15.609Z,46.83
2018-08-28T12:46:15.687Z,47.41
2018-08-28T12:47:15.609Z,46.25
2018-08-28T12:48:15.613Z,45.97
2018-08-28T12:49:15.351Z,46.15
2018-08-28T12:50:15.607Z,46.93
2018-08-28T12:51:15.675Z,46.73
2018-08-28T12:52:15.603Z,46.25
2018-08-28T12:53:15.607Z,45.58
2018-08-28T12:54:15.348Z,45.39
2018-08-28T12:55:15.607Z,45.97
2018-08-28T12:56:15.607Z,46.55
2018-08-28T12:57:15.605Z,45.1
2018-08-28T12:58:15.607Z,45.97
2018-08-28T12:59:15.605Z,45.97
2018-08-28T13:00:15.347Z,45.87
2018-08-28T13:01:15.606Z,45.29
2018-08-28T13:02:15.682Z,46.15
2018-08-28T13:03:15.603Z,45.77
2018-08-28T13:04:15.601Z,45.68
2018-08-28T13:05:15.344Z,45.97
2018-08-28T13:06:15.601Z,46.37
2018-08-28T13:07:15.678Z,46.56
2018-08-28T13:08:15.601Z,46.47
2018-08-28T13:09:15.340Z,46.56
2018-08-28T13:10:15.343Z,46.47
2018-08-28T13:11:15.610Z,45.41
2018-08-28T13:12:15.598Z,46.47
2018-08-28T13:13:15.601Z,45.89
2018-08-28T13:14:15.600Z,46.37
2018-08-28T13:15:15.634Z,46.37
2018-08-28T13:16:15.604Z,46.28
2018-08-28T13:17:15.615Z,45.7
2018-08-28T13:18:15.596Z,46.08
2018-08-28T13:19:15.597Z,45.51
2018-08-28T13:20:15.339Z,45.99
2018-08-28T13:21:15.595Z,45.21
2018-08-28T13:22:15.595Z,45.48
2018-08-28T13:23:15.593Z,45.2
2018-08-28T13:24:15.610Z,45.87
2018-08-28T13:25:15.891Z,46.15
2018-08-28T13:26:15.337Z,45.97
2018-08-28T13:27:15.594Z,45.2
2018-08-28T13:28:15.596Z,45.77